Time;durP1;ratioP1;P1;durP2;ratioP2;P2;SDS_P1;SDS_P2;PMS_P1;PMS_P2;Temp;Humidity;BMP_temperature;BMP_pressure;BME280_temperature;BME280_humidity;BME280_pressure;Samples;Min_cycle;Max_cycle;Signal;HPM_P1;HPM_P2
2023/06/25 00:02:13;;;;;;;12.97;7.77;;;20.40;65.40;;;;;;4987216;28;20203;-80
2023/06/25 00:04:39;;;;;;;11.50;7.07;;;20.30;65.80;;;;;;4967487;28;20195;-81
2023/06/25 00:07:05;;;;;;;14.50;10.27;;;20.20;66.00;;;;;;4974252;28;20253;-79
2023/06/25 00:09:30;;;;;;;15.17;9.80;;;20.20;66.00;;;;;;4990777;28;20203;-81
2023/06/25 00:11:56;;;;;;;25.33;16.60;;;20.10;66.40;;;;;;4989304;28;20460;-81
2023/06/25 00:14:22;;;;;;;13.17;7.67;;;20.00;66.60;;;;;;4981228;28;20193;-81
2023/06/25 00:16:47;;;;;;;17.60;11.10;;;20.10;66.40;;;;;;4978500;28;20191;-80
2023/06/25 00:19:17;;;;;;;31.10;19.27;;;20.20;66.30;;;;;;4993794;28;20243;-81
2023/06/25 00:21:42;;;;;;;25.70;17.50;;;20.10;66.10;;;;;;4990881;28;20228;-81
2023/06/25 00:24:08;;;;;;;29.23;19.63;;;20.10;66.00;;;;;;4992946;28;20532;-79
2023/06/25 00:26:33;;;;;;;32.07;19.30;;;20.10;66.10;;;;;;4990237;28;20408;-81
2023/06/25 00:28:59;;;;;;;24.40;16.40;;;20.10;66.30;;;;;;4992338;28;20277;-80
2023/06/25 00:31:24;;;;;;;20.53;11.97;;;20.10;66.30;;;;;;4993897;28;20203;-80
2023/06/25 00:33:50;;;;;;;18.20;11.43;;;20.10;66.00;;;;;;4984343;28;20188;-80
2023/06/25 00:36:16;;;;;;;16.87;11.17;;;20.10;66.00;;;;;;4975087;28;20190;-79
2023/06/25 00:38:42;;;;;;;17.57;10.03;;;20.10;66.10;;;;;;4988860;28;20238;-80
2023/06/25 00:41:11;;;;;;;14.73;10.17;;;20.00;66.30;;;;;;4965030;28;20211;-79
2023/06/25 00:43:41;;;;;;;15.50;8.60;;;19.90;66.60;;;;;;4966511;28;20479;-80
2023/06/25 00:46:12;;;;;;;11.83;8.70;;;19.90;66.70;;;;;;4981250;28;20423;-80
2023/06/25 00:48:45;;;;;;;13.30;8.80;;;19.90;67.00;;;;;;4978673;28;20427;-79
2023/06/25 00:51:12;;;;;;;15.00;9.60;;;19.90;67.00;;;;;;4968623;28;20458;-81
2023/06/25 00:53:38;;;;;;;13.40;8.27;;;19.90;67.00;;;;;;4979952;28;20463;-81
2023/06/25 00:56:04;;;;;;;12.77;8.43;;;19.90;66.90;;;;;;4981774;28;20447;-81
2023/06/25 00:58:30;;;;;;;12.90;8.23;;;19.90;66.90;;;;;;4983686;28;20475;-81
2023/06/25 01:00:59;;;;;;;10.00;7.13;;;19.90;67.00;;;;;;4979072;28;20459;-80
2023/06/25 01:03:41;;;;;;;15.23;8.40;;;19.90;67.00;;;;;;4966263;28;20195;-79
2023/06/25 01:06:15;;;;;;;11.93;7.30;;;19.90;67.20;;;;;;4980537;28;20449;-79
2023/06/25 01:08:49;;;;;;;10.37;7.10;;;19.80;67.20;;;;;;4979462;28;20772;-80
2023/06/25 01:11:15;;;;;;;11.27;6.97;;;19.80;67.20;;;;;;4996660;28;20461;-80
2023/06/25 01:13:41;;;;;;;10.47;6.67;;;19.80;67.20;;;;;;4981979;28;20430;-81
2023/06/25 01:16:07;;;;;;;9.47;6.37;;;19.80;67.20;;;;;;4982293;28;20454;-81
2023/06/25 01:18:32;;;;;;;9.90;7.17;;;19.70;67.30;;;;;;4966799;28;20242;-81
2023/06/25 01:21:00;;;;;;;12.90;6.90;;;19.60;67.50;;;;;;4985883;28;20203;-81
2023/06/25 01:23:25;;;;;;;10.83;7.60;;;19.60;67.60;;;;;;4982430;28;20478;-80
2023/06/25 01:25:51;;;;;;;9.47;6.40;;;19.50;67.60;;;;;;4982921;28;20418;-80
2023/06/25 01:28:20;;;;;;;9.10;5.90;;;19.50;67.60;;;;;;4982809;28;20253;-80
2023/06/25 01:30:52;;;;;;;8.70;5.90;;;19.50;67.60;;;;;;4982329;28;20215;-80
2023/06/25 01:33:21;;;;;;;9.13;6.63;;;19.50;67.90;;;;;;4970915;28;20445;-78
2023/06/25 01:35:47;;;;;;;9.33;6.47;;;19.50;67.70;;;;;;4991356;28;20509;-79
2023/06/25 01:38:14;;;;;;;10.23;6.60;;;19.40;67.90;;;;;;4973661;28;20490;-79
2023/06/25 01:40:40;;;;;;;9.10;6.63;;;19.40;68.30;;;;;;4970455;28;20534;-81
2023/06/25 01:43:05;;;;;;;8.17;6.40;;;19.40;68.30;;;;;;4983205;28;20456;-79
2023/06/25 01:45:31;;;;;;;14.80;6.63;;;19.30;68.60;;;;;;4985866;28;20197;-79
2023/06/25 01:47:58;;;;;;;12.77;6.70;;;19.40;69.10;;;;;;4967652;28;20569;-80
2023/06/25 01:50:23;;;;;;;11.40;7.10;;;19.30;69.10;;;;;;4979261;28;20215;-80
2023/06/25 01:52:49;;;;;;;10.13;6.10;;;19.20;69.20;;;;;;4981679;28;20427;-79
2023/06/25 01:55:14;;;;;;;11.80;6.30;;;19.20;69.20;;;;;;4979270;28;20266;-80
2023/06/25 01:57:40;;;;;;;11.43;7.47;;;19.10;69.10;;;;;;4980342;28;20194;-81
2023/06/25 02:00:11;;;;;;;9.80;6.23;;;19.00;69.10;;;;;;4966327;28;20246;-81
2023/06/25 02:02:36;;;;;;;11.00;6.97;;;19.00;68.90;;;;;;4971279;28;20234;-81
2023/06/25 02:05:02;;;;;;;8.87;5.63;;;18.90;69.10;;;;;;4976237;28;20437;-82
2023/06/25 02:07:28;;;;;;;8.57;5.87;;;18.80;69.20;;;;;;4986889;28;20210;-81
2023/06/25 02:09:54;;;;;;;10.67;6.30;;;18.70;69.40;;;;;;4985697;28;20425;-82
2023/06/25 02:12:19;;;;;;;9.03;6.23;;;18.70;69.40;;;;;;4974658;28;20215;-81
2023/06/25 02:14:45;;;;;;;10.70;6.63;;;18.70;69.50;;;;;;4995278;28;20197;-80
2023/06/25 02:17:10;;;;;;;9.60;6.40;;;18.80;69.90;;;;;;4968919;28;20195;-79
2023/06/25 02:19:36;;;;;;;10.87;6.53;;;18.80;69.90;;;;;;4976812;28;20208;-81
2023/06/25 02:22:02;;;;;;;9.47;5.33;;;18.70;69.90;;;;;;4980409;28;20210;-80
2023/06/25 02:24:28;;;;;;;11.60;6.07;;;18.70;69.80;;;;;;4978783;28;20194;-81
2023/06/25 02:26:54;;;;;;;8.70;6.43;;;18.70;69.70;;;;;;4978110;28;20422;-82
2023/06/25 02:29:19;;;;;;;9.17;6.10;;;18.80;69.70;;;;;;4976738;28;20188;-78
2023/06/25 02:31:45;;;;;;;10.10;6.33;;;18.70;69.50;;;;;;4976542;28;20240;-80
2023/06/25 02:34:11;;;;;;;8.67;6.10;;;18.70;69.50;;;;;;4976946;28;20196;-79
2023/06/25 02:36:36;;;;;;;8.93;6.00;;;18.70;69.70;;;;;;4977043;28;20198;-80
2023/06/25 02:39:02;;;;;;;13.13;6.13;;;18.70;69.70;;;;;;4978539;28;20484;-80
2023/06/25 02:41:28;;;;;;;10.57;6.70;;;18.70;69.80;;;;;;4974379;28;20210;-80
2023/06/25 02:43:54;;;;;;;9.10;5.97;;;18.70;70.10;;;;;;4979180;28;20498;-80
2023/06/25 02:46:19;;;;;;;10.10;6.40;;;18.70;69.70;;;;;;4978817;28;20197;-81
2023/06/25 02:48:45;;;;;;;8.97;5.73;;;18.70;69.70;;;;;;4978779;28;20230;-81
2023/06/25 02:51:10;;;;;;;9.20;6.23;;;18.60;69.70;;;;;;4970985;28;20219;-80
2023/06/25 02:53:36;;;;;;;8.40;5.93;;;18.60;69.80;;;;;;4983255;28;20270;-79
2023/06/25 02:56:02;;;;;;;8.33;6.50;;;18.60;70.20;;;;;;4980191;28;20180;-79
2023/06/25 02:58:28;;;;;;;8.53;6.20;;;18.60;70.20;;;;;;4982461;28;20476;-79
2023/06/25 03:00:53;;;;;;;10.37;6.60;;;18.50;70.20;;;;;;4979673;28;20238;-80
2023/06/25 03:03:19;;;;;;;9.33;6.40;;;18.50;70.40;;;;;;4982307;28;20204;-80
2023/06/25 03:05:44;;;;;;;9.20;6.80;;;18.50;70.40;;;;;;4965444;28;20204;-79
2023/06/25 03:08:10;;;;;;;11.53;6.20;;;18.50;70.20;;;;;;4978891;28;20275;-79
2023/06/25 03:10:37;;;;;;;9.33;5.80;;;18.50;70.20;;;;;;4986296;28;20219;-80
2023/06/25 03:13:04;;;;;;;9.23;5.97;;;18.40;70.20;;;;;;4985713;28;20209;-80
2023/06/25 03:15:30;;;;;;;11.13;5.50;;;18.40;70.10;;;;;;4977467;28;20424;-80
2023/06/25 03:17:56;;;;;;;9.53;6.07;;;18.40;70.10;;;;;;4978071;28;20429;-80
2023/06/25 03:20:21;;;;;;;8.93;5.83;;;18.40;70.10;;;;;;4975047;28;20569;-80
2023/06/25 03:22:47;;;;;;;7.37;5.03;;;18.40;70.10;;;;;;4976232;28;20642;-78
2023/06/25 03:25:13;;;;;;;11.60;6.90;;;18.40;69.90;;;;;;4977669;28;20189;-79
2023/06/25 03:27:38;;;;;;;9.87;6.30;;;18.30;69.90;;;;;;4975529;28;20189;-79
2023/06/25 03:30:04;;;;;;;8.87;6.70;;;18.30;70.50;;;;;;4975880;28;20197;-80
2023/06/25 03:32:30;;;;;;;15.90;6.93;;;18.20;70.80;;;;;;4973033;28;20187;-79
2023/06/25 03:34:56;;;;;;;9.83;6.47;;;18.20;71.00;;;;;;4975727;28;20514;-80
2023/06/25 03:37:22;;;;;;;11.80;7.20;;;18.10;71.00;;;;;;4975998;28;20596;-81
2023/06/25 03:39:48;;;;;;;10.30;7.10;;;17.90;71.30;;;;;;4989490;28;20306;-80
2023/06/25 03:42:13;;;;;;;10.90;6.90;;;17.80;71.30;;;;;;4974005;28;20480;-78
2023/06/25 03:44:46;;;;;;;9.67;6.83;;;17.70;71.40;;;;;;4974889;28;20201;-79
2023/06/25 03:47:12;;;;;;;9.83;6.77;;;17.70;71.30;;;;;;4974584;28;20271;-79
2023/06/25 03:49:37;;;;;;;10.60;6.50;;;17.70;71.30;;;;;;4975258;28;20458;-80
2023/06/25 03:52:03;;;;;;;9.20;6.73;;;17.70;71.40;;;;;;4975734;28;20213;-81
2023/06/25 03:54:29;;;;;;;10.33;6.70;;;17.80;71.10;;;;;;4980358;28;20560;-82
2023/06/25 03:56:54;;;;;;;11.57;7.10;;;17.90;71.00;;;;;;4977198;28;20440;-81
2023/06/25 03:59:20;;;;;;;10.47;6.33;;;17.90;70.50;;;;;;4977110;28;20711;-80
2023/06/25 04:01:45;;;;;;;10.50;6.83;;;18.00;70.70;;;;;;4967869;28;20207;-80
2023/06/25 04:04:11;;;;;;;8.90;6.30;;;18.00;70.50;;;;;;4965324;28;20214;-80
2023/06/25 04:06:37;;;;;;;8.70;6.00;;;18.00;70.40;;;;;;4981378;28;20188;-79
2023/06/25 04:09:03;;;;;;;10.43;6.77;;;18.00;70.40;;;;;;4980581;28;20213;-80
2023/06/25 04:11:29;;;;;;;10.13;6.40;;;18.10;70.40;;;;;;4973479;28;20252;-80
2023/06/25 04:13:54;;;;;;;11.73;6.97;;;18.30;70.20;;;;;;4983989;28;20441;-79
2023/06/25 04:16:20;;;;;;;9.70;6.53;;;18.20;70.20;;;;;;4982415;28;20509;-79
2023/06/25 04:18:46;;;;;;;14.73;7.53;;;18.10;70.70;;;;;;4982171;28;20210;-81
2023/06/25 04:21:11;;;;;;;9.43;6.17;;;17.90;71.00;;;;;;4980649;28;20769;-81
2023/06/25 04:23:37;;;;;;;8.97;6.33;;;17.90;71.30;;;;;;4982615;28;20187;-79
2023/06/25 04:26:02;;;;;;;8.57;5.83;;;18.00;71.10;;;;;;4981082;28;20612;-79
2023/06/25 04:28:28;;;;;;;9.90;6.40;;;18.00;70.70;;;;;;4982028;28;20214;-80
2023/06/25 04:30:53;;;;;;;8.90;6.17;;;18.20;70.20;;;;;;4972111;28;20434;-82
2023/06/25 04:33:20;;;;;;;10.90;6.40;;;18.20;70.20;;;;;;4962833;28;20680;-79
2023/06/25 04:35:45;;;;;;;8.30;6.13;;;18.30;69.90;;;;;;4976145;28;20198;-78
2023/06/25 04:38:11;;;;;;;12.03;7.50;;;18.40;69.80;;;;;;4962047;28;20469;-79
2023/06/25 04:40:37;;;;;;;10.67;7.40;;;18.40;69.80;;;;;;4974488;28;20226;-80
2023/06/25 04:43:02;;;;;;;10.23;6.50;;;18.40;69.90;;;;;;4977783;28;20252;-79
2023/06/25 04:45:28;;;;;;;11.67;6.73;;;18.50;69.80;;;;;;4976936;28;20270;-79
2023/06/25 04:47:53;;;;;;;8.97;6.10;;;18.50;69.90;;;;;;4975423;28;20198;-79
2023/06/25 04:50:20;;;;;;;11.30;7.40;;;18.50;69.90;;;;;;4975313;28;20609;-80
2023/06/25 04:52:45;;;;;;;9.77;6.00;;;18.60;69.90;;;;;;4973150;28;20660;-79
2023/06/25 04:55:11;;;;;;;10.23;6.73;;;18.70;69.80;;;;;;4981311;28;20433;-79
2023/06/25 04:57:37;;;;;;;11.43;7.20;;;18.80;69.70;;;;;;4978747;28;20192;-78
2023/06/25 05:00:04;;;;;;;12.63;6.40;;;18.80;69.50;;;;;;4978481;28;20681;-79
2023/06/25 05:02:29;;;;;;;10.77;6.97;;;18.70;69.80;;;;;;4977599;28;20210;-79
2023/06/25 05:04:55;;;;;;;12.90;7.50;;;18.70;69.90;;;;;;4976907;28;20430;-79
2023/06/25 05:07:20;;;;;;;12.87;7.67;;;18.70;69.90;;;;;;4991543;28;20214;-77
2023/06/25 05:09:46;;;;;;;11.17;7.47;;;18.60;70.10;;;;;;4986220;28;20257;-79
2023/06/25 05:12:11;;;;;;;11.10;7.63;;;18.50;70.40;;;;;;4982714;28;20219;-79
2023/06/25 05:14:37;;;;;;;10.93;6.53;;;18.50;70.40;;;;;;4983613;28;20198;-78
2023/06/25 05:17:03;;;;;;;9.03;6.70;;;18.60;70.40;;;;;;4975714;28;20181;-78
2023/06/25 05:19:29;;;;;;;12.10;7.03;;;18.70;70.20;;;;;;4962391;28;20949;-79
2023/06/25 05:21:55;;;;;;;11.50;7.20;;;18.90;69.90;;;;;;4979879;28;20545;-78
2023/06/25 05:24:20;;;;;;;10.10;6.87;;;19.00;69.40;;;;;;4981969;28;20183;-78
2023/06/25 05:26:46;;;;;;;10.00;7.03;;;19.10;69.20;;;;;;4981639;28;20188;-80
2023/06/25 05:29:11;;;;;;;9.90;6.40;;;19.20;69.40;;;;;;4977871;28;20188;-79
2023/06/25 05:31:37;;;;;;;10.00;6.67;;;19.30;69.10;;;;;;4977337;28;20218;-78
2023/06/25 05:34:02;;;;;;;12.07;7.83;;;19.40;69.10;;;;;;4981783;28;20199;-78
2023/06/25 05:36:29;;;;;;;12.00;8.10;;;19.50;69.10;;;;;;4977262;28;20266;-78
2023/06/25 05:38:55;;;;;;;14.30;7.83;;;19.50;69.40;;;;;;4960848;28;20260;-79
2023/06/25 05:41:21;;;;;;;12.20;8.50;;;19.60;69.10;;;;;;4965394;28;20489;-79
2023/06/25 05:43:46;;;;;;;13.73;7.90;;;19.70;68.80;;;;;;4980288;28;20918;-78
2023/06/25 05:46:13;;;;;;;12.27;8.20;;;19.80;68.90;;;;;;4980145;28;20220;-79
2023/06/25 05:48:39;;;;;;;15.73;8.40;;;19.80;68.90;;;;;;4962140;28;20659;-77
2023/06/25 05:51:05;;;;;;;14.33;8.67;;;19.90;68.80;;;;;;4980952;28;20874;-80
2023/06/25 05:53:41;;;;;;;11.40;8.97;;;19.90;68.50;;;;;;4980213;28;20424;-80
2023/06/25 05:56:07;;;;;;;14.77;8.30;;;19.90;68.30;;;;;;4980645;28;20447;-78
2023/06/25 05:58:37;;;;;;;14.50;8.70;;;20.00;68.50;;;;;;4963331;28;20466;-79
2023/06/25 06:01:03;;;;;;;10.97;7.43;;;20.10;68.30;;;;;;4983259;28;20809;-79
2023/06/25 06:03:29;;;;;;;14.30;7.63;;;20.20;67.90;;;;;;4970688;28;20799;-78
2023/06/25 06:05:56;;;;;;;11.50;7.20;;;20.30;67.60;;;;;;4980989;28;20426;-80
2023/06/25 06:08:22;;;;;;;11.70;7.23;;;20.30;67.00;;;;;;4982867;28;20184;-79
2023/06/25 06:10:48;;;;;;;13.43;7.30;;;20.50;66.90;;;;;;4994430;28;20474;-80
2023/06/25 06:13:14;;;;;;;13.67;8.03;;;20.70;66.10;;;;;;4979678;28;20192;-80
2023/06/25 06:15:40;;;;;;;13.70;8.87;;;20.60;65.70;;;;;;4980584;28;21050;-78
2023/06/25 06:18:06;;;;;;;9.83;7.27;;;20.60;66.00;;;;;;4981005;28;20441;-80
2023/06/25 06:20:31;;;;;;;14.87;8.43;;;20.80;66.00;;;;;;4979320;28;20213;-80
2023/06/25 06:22:58;;;;;;;11.43;7.40;;;20.80;65.70;;;;;;4978009;28;20187;-80
2023/06/25 06:25:24;;;;;;;11.17;7.20;;;20.80;66.10;;;;;;4993759;28;20244;-80
2023/06/25 06:27:50;;;;;;;12.00;8.00;;;20.90;66.00;;;;;;4996763;28;20839;-79
2023/06/25 06:30:15;;;;;;;11.20;7.30;;;20.90;65.60;;;;;;4988054;28;20441;-81
2023/06/25 06:32:41;;;;;;;9.70;7.10;;;21.10;65.70;;;;;;4988544;28;20209;-80
2023/06/25 06:35:07;;;;;;;11.90;7.70;;;21.20;65.30;;;;;;4978121;28;20201;-80
2023/06/25 06:37:32;;;;;;;14.13;7.60;;;21.30;64.70;;;;;;4978407;28;20680;-79
2023/06/25 06:39:58;;;;;;;10.60;7.20;;;21.40;64.70;;;;;;4977939;28;20222;-80
2023/06/25 06:42:24;;;;;;;11.33;7.07;;;21.50;64.10;;;;;;4979774;28;20325;-82
2023/06/25 06:44:49;;;;;;;11.60;7.20;;;21.60;63.90;;;;;;4977873;28;20263;-81
2023/06/25 06:47:15;;;;;;;10.13;6.83;;;21.70;63.70;;;;;;4965828;28;20190;-81
2023/06/25 06:49:41;;;;;;;10.60;7.00;;;21.70;62.50;;;;;;4971913;28;20650;-79
2023/06/25 06:52:07;;;;;;;12.70;7.13;;;21.80;61.90;;;;;;4976684;28;20209;-80
2023/06/25 06:54:32;;;;;;;10.37;6.63;;;21.80;61.30;;;;;;4975544;28;20650;-79
2023/06/25 06:56:58;;;;;;;11.40;7.20;;;21.80;61.20;;;;;;4966612;28;20453;-79
2023/06/25 06:59:23;;;;;;;11.00;6.80;;;21.90;60.70;;;;;;4963608;28;20263;-79
2023/06/25 07:01:49;;;;;;;13.37;6.53;;;21.90;60.30;;;;;;4975852;28;20214;-79
2023/06/25 07:04:15;;;;;;;10.80;7.17;;;22.10;60.30;;;;;;4975443;28;20196;-80
2023/06/25 07:06:41;;;;;;;11.53;7.23;;;22.20;58.10;;;;;;4962876;28;20185;-81
2023/06/25 07:09:06;;;;;;;11.93;6.83;;;22.40;56.00;;;;;;4977307;28;20553;-79
2023/06/25 07:11:32;;;;;;;15.33;8.60;;;22.50;55.70;;;;;;4978159;28;20221;-79
2023/06/25 07:13:57;;;;;;;10.50;7.03;;;22.60;55.00;;;;;;4980273;28;20256;-77
2023/06/25 07:16:23;;;;;;;10.77;6.70;;;22.70;54.80;;;;;;4976897;28;20200;-80
2023/06/25 07:18:48;;;;;;;12.20;6.43;;;22.90;53.30;;;;;;4978573;28;20209;-76
2023/06/25 07:21:14;;;;;;;10.40;6.37;;;23.10;52.90;;;;;;4977795;28;20213;-76
2023/06/25 07:23:40;;;;;;;9.77;6.30;;;23.20;51.80;;;;;;4967270;28;20209;-75
2023/06/25 07:26:05;;;;;;;10.27;6.47;;;23.30;51.60;;;;;;4968729;28;20218;-75
2023/06/25 07:28:31;;;;;;;10.57;6.90;;;23.40;51.70;;;;;;4977737;28;20202;-75
2023/06/25 07:30:57;;;;;;;10.10;6.70;;;23.40;52.10;;;;;;4972699;28;20218;-75
2023/06/25 07:33:22;;;;;;;11.27;6.67;;;23.50;52.10;;;;;;4975705;28;20952;-75
2023/06/25 07:35:48;;;;;;;12.10;6.90;;;23.60;52.00;;;;;;4980591;28;20187;-77
2023/06/25 07:38:14;;;;;;;11.53;6.37;;;23.60;52.50;;;;;;4979061;28;20207;-75
2023/06/25 07:40:39;;;;;;;12.10;7.00;;;23.50;53.00;;;;;;4958526;28;20212;-76
2023/06/25 07:43:05;;;;;;;9.63;7.10;;;23.50;53.20;;;;;;4979677;28;20664;-76
2023/06/25 07:45:30;;;;;;;12.23;6.50;;;23.50;53.40;;;;;;4981026;28;20922;-77
2023/06/25 07:47:56;;;;;;;10.07;6.57;;;23.60;53.30;;;;;;4981805;28;20203;-76
2023/06/25 07:50:24;;;;;;;9.60;7.17;;;23.70;53.70;;;;;;4961895;28;20269;-74
2023/06/25 07:52:50;;;;;;;13.00;7.33;;;23.90;53.40;;;;;;4979503;28;20186;-74
2023/06/25 07:55:15;;;;;;;12.40;7.00;;;23.90;52.90;;;;;;4979518;28;20457;-75
2023/06/25 07:57:41;;;;;;;12.47;7.33;;;23.90;52.60;;;;;;4977101;28;20281;-73
2023/06/25 08:00:07;;;;;;;11.23;7.30;;;23.90;53.20;;;;;;4974328;28;20210;-76
2023/06/25 08:02:33;;;;;;;11.83;7.20;;;23.90;52.80;;;;;;4974649;28;20200;-73
2023/06/25 08:04:58;;;;;;;11.83;7.87;;;24.00;52.40;;;;;;4972502;28;20428;-76
2023/06/25 08:07:24;;;;;;;12.57;7.60;;;23.90;52.20;;;;;;4976104;28;20912;-75
2023/06/25 08:09:50;;;;;;;16.03;7.30;;;24.10;52.40;;;;;;4977149;28;20187;-78
2023/06/25 08:12:16;;;;;;;12.43;8.27;;;24.30;51.80;;;;;;4975582;28;20203;-74
2023/06/25 08:14:42;;;;;;;14.43;8.80;;;24.40;51.60;;;;;;4979642;28;20230;-77
2023/06/25 08:17:07;;;;;;;11.63;7.40;;;24.40;51.60;;;;;;4981417;28;20518;-77
2023/06/25 08:19:33;;;;;;;10.97;6.53;;;24.50;50.60;;;;;;4982842;28;21032;-78
2023/06/25 08:21:59;;;;;;;11.80;7.67;;;24.60;50.10;;;;;;4978442;28;20303;-78
2023/06/25 08:24:24;;;;;;;12.90;8.13;;;24.60;48.90;;;;;;4993778;28;20196;-76
2023/06/25 08:26:50;;;;;;;12.73;7.07;;;24.60;47.90;;;;;;4964519;28;20225;-78
2023/06/25 08:29:15;;;;;;;12.67;7.60;;;24.60;48.30;;;;;;4980504;28;20204;-78
2023/06/25 08:31:41;;;;;;;14.07;8.40;;;24.80;47.80;;;;;;4989276;28;20695;-78
2023/06/25 08:34:07;;;;;;;14.97;8.10;;;25.00;47.10;;;;;;4980759;28;20185;-77
2023/06/25 08:36:32;;;;;;;11.80;7.53;;;25.00;46.10;;;;;;4972188;28;20225;-77
2023/06/25 08:38:58;;;;;;;13.30;7.77;;;25.10;46.20;;;;;;4981165;28;21194;-77
2023/06/25 08:41:23;;;;;;;10.70;7.30;;;25.20;46.20;;;;;;4964316;28;20212;-77
2023/06/25 08:43:49;;;;;;;11.60;7.80;;;25.20;45.50;;;;;;4965790;28;20677;-77
2023/06/25 08:46:16;;;;;;;9.53;6.83;;;25.30;45.00;;;;;;4982495;28;20202;-78
2023/06/25 08:48:43;;;;;;;12.33;7.63;;;25.40;45.40;;;;;;4985815;28;20260;-78
2023/06/25 08:51:15;;;;;;;13.73;7.40;;;25.40;45.40;;;;;;4968227;28;20476;-77
2023/06/25 08:53:41;;;;;;;11.80;7.80;;;25.40;45.40;;;;;;4976685;28;20440;-75
2023/06/25 08:56:07;;;;;;;15.13;8.63;;;25.10;45.40;;;;;;4980330;28;20436;-73
2023/06/25 08:58:34;;;;;;;14.90;8.50;;;25.20;45.90;;;;;;4982757;28;20689;-74
2023/06/25 09:00:59;;;;;;;11.83;7.50;;;25.30;46.10;;;;;;4966300;28;20533;-76
2023/06/25 09:03:25;;;;;;;14.87;8.07;;;25.40;45.80;;;;;;4972075;28;20500;-74
2023/06/25 09:05:53;;;;;;;12.37;7.87;;;25.50;45.80;;;;;;4981546;28;20191;-75
2023/06/25 09:08:20;;;;;;;10.43;6.63;;;25.60;45.30;;;;;;4980879;28;20216;-78
2023/06/25 09:10:50;;;;;;;11.30;7.37;;;25.70;44.90;;;;;;4986578;28;20469;-76
2023/06/25 09:13:24;;;;;;;14.07;7.90;;;25.80;44.70;;;;;;4981795;28;20476;-77
2023/06/25 09:15:50;;;;;;;13.20;7.60;;;25.90;44.20;;;;;;4978291;28;20432;-77
2023/06/25 09:18:20;;;;;;;11.30;7.03;;;26.00;44.30;;;;;;4978262;28;20509;-74
2023/06/25 09:20:47;;;;;;;12.27;7.10;;;26.00;43.70;;;;;;4976329;28;20210;-76
2023/06/25 09:23:21;;;;;;;10.73;6.70;;;26.10;43.20;;;;;;4977979;28;20513;-76
2023/06/25 09:25:48;;;;;;;11.50;6.17;;;26.30;41.90;;;;;;4984162;28;20440;-78
2023/06/25 09:28:14;;;;;;;10.53;6.53;;;26.50;39.90;;;;;;4983797;28;20879;-80
2023/06/25 09:30:40;;;;;;;11.40;7.20;;;26.50;38.80;;;;;;4976851;28;20475;-77
2023/06/25 09:33:05;;;;;;;13.30;6.43;;;26.50;39.10;;;;;;4963329;28;20366;-77
2023/06/25 09:35:32;;;;;;;9.90;6.00;;;26.30;39.10;;;;;;4981042;28;20190;-78
2023/06/25 09:37:59;;;;;;;11.60;6.00;;;26.40;39.50;;;;;;4978875;28;20195;-78
2023/06/25 09:40:24;;;;;;;9.37;6.40;;;26.50;39.00;;;;;;4977548;28;21971;-76
2023/06/25 09:42:54;;;;;;;10.70;6.30;;;26.60;38.00;;;;;;4975625;28;20428;-77
2023/06/25 09:45:21;;;;;;;11.13;6.30;;;26.50;38.20;;;;;;4976636;28;20192;-77
2023/06/25 09:47:48;;;;;;;13.83;7.50;;;26.60;37.80;;;;;;4977180;28;20438;-77
2023/06/25 09:50:18;;;;;;;10.60;7.23;;;26.60;37.10;;;;;;4976303;28;20573;-78
2023/06/25 09:52:53;;;;;;;9.80;6.50;;;26.50;35.50;;;;;;4979426;28;20441;-77
2023/06/25 09:55:20;;;;;;;10.67;6.43;;;26.40;35.70;;;;;;4961926;28;20570;-78
2023/06/25 09:57:47;;;;;;;10.23;7.20;;;26.50;35.70;;;;;;4976949;28;20432;-77
2023/06/25 10:00:13;;;;;;;11.43;6.97;;;26.60;35.30;;;;;;4977235;28;20564;-78
2023/06/25 10:02:39;;;;;;;18.07;10.73;;;26.70;35.90;;;;;;4978282;28;20454;-78
2023/06/25 10:05:05;;;;;;;8.60;6.10;;;26.80;35.60;;;;;;4979589;28;20464;-77
2023/06/25 10:07:31;;;;;;;11.17;6.70;;;26.80;35.10;;;;;;4977733;28;20308;-78
2023/06/25 10:09:56;;;;;;;10.47;6.87;;;26.70;35.60;;;;;;4981973;28;20437;-77
2023/06/25 10:12:22;;;;;;;11.93;6.73;;;26.90;36.00;;;;;;4992714;28;20201;-77
2023/06/25 10:14:48;;;;;;;11.93;7.33;;;27.10;35.60;;;;;;4998071;28;20179;-77
2023/06/25 10:17:14;;;;;;;10.90;6.90;;;27.20;35.30;;;;;;4975995;29;20445;-76
2023/06/25 10:19:55;;;;;;;9.80;7.33;;;27.10;34.50;;;;;;4980476;28;20238;-77
2023/06/25 10:22:25;;;;;;;12.60;7.33;;;27.00;35.20;;;;;;4992517;28;20229;-76
2023/06/25 10:24:53;;;;;;;10.63;6.70;;;27.10;35.10;;;;;;4993958;28;20448;-77
2023/06/25 10:27:24;;;;;;;10.07;6.50;;;27.40;34.90;;;;;;4992264;28;20450;-77
2023/06/25 10:29:51;;;;;;;12.87;7.70;;;28.00;34.30;;;;;;4990544;28;20441;-77
2023/06/25 10:32:25;;;;;;;12.37;7.03;;;28.50;33.30;;;;;;4986667;28;20467;-78
2023/06/25 10:34:53;;;;;;;13.73;7.87;;;28.50;32.90;;;;;;4992487;28;20447;-77
2023/06/25 10:37:19;;;;;;;13.93;8.03;;;28.70;33.10;;;;;;4992953;28;20419;-77
2023/06/25 10:39:44;;;;;;;12.80;7.30;;;29.00;32.50;;;;;;4982516;28;20804;-76
2023/06/25 10:42:13;;;;;;;10.70;7.00;;;29.20;31.90;;;;;;4974759;28;20211;-77
2023/06/25 10:44:39;;;;;;;9.73;7.50;;;29.30;32.40;;;;;;4975532;28;20631;-77
2023/06/25 10:47:09;;;;;;;12.90;7.63;;;29.60;32.30;;;;;;4977311;28;20435;-75
2023/06/25 10:49:35;;;;;;;9.80;6.80;;;29.80;31.90;;;;;;4964628;28;20913;-77
2023/06/25 10:52:02;;;;;;;14.70;7.90;;;29.80;30.90;;;;;;4974703;28;20447;-78
2023/06/25 10:54:28;;;;;;;12.33;7.17;;;29.90;31.20;;;;;;4953384;28;20470;-76
2023/06/25 10:57:04;;;;;;;12.43;7.27;;;30.10;30.80;;;;;;4975412;28;20462;-76
2023/06/25 10:59:30;;;;;;;11.90;8.03;;;30.30;30.10;;;;;;4968306;28;20218;-77
2023/06/25 11:01:55;;;;;;;17.97;8.67;;;30.00;30.40;;;;;;4972388;28;20470;-77
2023/06/25 11:04:21;;;;;;;13.40;8.30;;;29.20;31.90;;;;;;4974346;28;20210;-76
2023/06/25 11:06:47;;;;;;;11.37;7.30;;;29.50;31.90;;;;;;4974594;28;20197;-78
2023/06/25 11:09:12;;;;;;;11.53;6.90;;;29.80;31.10;;;;;;4973889;28;20278;-77
2023/06/25 11:11:38;;;;;;;13.57;7.23;;;30.30;30.30;;;;;;4974712;28;20239;-76
2023/06/25 11:14:03;;;;;;;14.57;7.53;;;30.30;29.10;;;;;;4973707;28;20191;-76
2023/06/25 11:16:29;;;;;;;15.23;7.87;;;30.00;29.90;;;;;;4973345;28;20195;-77
2023/06/25 11:18:55;;;;;;;12.33;7.87;;;29.30;30.70;;;;;;4961658;28;20221;-75
2023/06/25 11:21:20;;;;;;;11.30;7.57;;;29.10;30.90;;;;;;4980139;28;20231;-77
2023/06/25 11:23:46;;;;;;;14.80;8.60;;;29.40;31.20;;;;;;4980268;28;20196;-76
2023/06/25 11:26:17;;;;;;;12.57;7.77;;;29.80;30.10;;;;;;4967480;28;20190;-77
2023/06/25 11:28:43;;;;;;;11.73;7.20;;;29.90;29.80;;;;;;4978937;28;20201;-77
2023/06/25 11:31:09;;;;;;;12.70;7.87;;;29.80;30.50;;;;;;4959829;28;20892;-77
2023/06/25 11:33:34;;;;;;;11.73;7.73;;;30.30;29.70;;;;;;4964778;28;20580;-76
2023/06/25 11:36:10;;;;;;;12.57;8.37;;;30.60;29.40;;;;;;4977384;28;20445;-78
2023/06/25 11:38:36;;;;;;;14.93;8.80;;;30.80;28.90;;;;;;4976560;28;20293;-76
2023/06/25 11:41:01;;;;;;;13.50;8.43;;;30.60;28.80;;;;;;4975300;28;20486;-77
2023/06/25 11:43:28;;;;;;;11.20;8.00;;;30.60;28.80;;;;;;4958603;28;20419;-76
2023/06/25 11:45:59;;;;;;;12.30;7.60;;;30.80;28.70;;;;;;4975642;28;20184;-77
2023/06/25 11:48:25;;;;;;;11.00;7.10;;;31.00;28.40;;;;;;4974088;28;20427;-76
2023/06/25 11:50:52;;;;;;;13.07;8.10;;;31.20;28.10;;;;;;4971607;28;20485;-75
2023/06/25 11:53:17;;;;;;;10.80;7.20;;;31.10;28.00;;;;;;4972320;28;20186;-75
2023/06/25 11:55:43;;;;;;;11.50;8.20;;;31.10;28.40;;;;;;4974248;28;20418;-77
2023/06/25 11:58:10;;;;;;;15.03;9.03;;;31.10;28.20;;;;;;4973102;28;20192;-76
2023/06/25 12:00:36;;;;;;;13.03;7.90;;;31.10;28.00;;;;;;4972019;28;20242;-75
2023/06/25 12:03:02;;;;;;;15.20;8.70;;;31.20;28.00;;;;;;4978360;28;20488;-77
2023/06/25 12:05:28;;;;;;;12.57;7.63;;;31.50;27.50;;;;;;4971912;28;20423;-75
2023/06/25 12:07:54;;;;;;;11.87;7.77;;;31.30;27.60;;;;;;4973431;28;20430;-75
2023/06/25 12:10:19;;;;;;;13.60;8.70;;;31.50;27.40;;;;;;4972112;28;20283;-76
2023/06/25 12:12:46;;;;;;;12.93;8.40;;;31.50;27.40;;;;;;4973655;28;20211;-78
2023/06/25 12:15:11;;;;;;;13.37;7.10;;;31.50;27.40;;;;;;4974129;28;20255;-77
2023/06/25 12:17:37;;;;;;;13.07;8.30;;;31.70;27.40;;;;;;4974238;28;20497;-75
2023/06/25 12:20:04;;;;;;;10.63;7.53;;;31.80;26.60;;;;;;4970790;28;20243;-75
2023/06/25 12:22:29;;;;;;;12.03;7.53;;;31.80;26.90;;;;;;4970937;28;20238;-77
2023/06/25 12:24:55;;;;;;;13.20;7.40;;;31.80;26.50;;;;;;4972924;28;20538;-76
2023/06/25 12:27:20;;;;;;;12.80;8.17;;;31.70;27.20;;;;;;4974479;28;20282;-77
2023/06/25 12:29:46;;;;;;;13.57;8.07;;;32.10;26.70;;;;;;4976737;28;20194;-76
2023/06/25 12:32:12;;;;;;;12.07;7.70;;;31.30;27.00;;;;;;4977126;28;20211;-77
2023/06/25 12:34:37;;;;;;;11.93;7.70;;;31.50;26.90;;;;;;4977248;28;20733;-77